createdAt,value
2019-03-22T00:00:20.504Z,1027.58
2019-03-22T00:01:20.503Z,1027.49
2019-03-22T00:02:20.504Z,1027.55
2019-03-22T00:03:20.498Z,1027.49
2019-03-22T00:04:20.464Z,1027.47
2019-03-22T00:05:20.468Z,1027.47
2019-03-22T00:06:20.439Z,1027.47
2019-03-22T00:07:20.440Z,1027.43
2019-03-22T00:08:20.435Z,1027.49
2019-03-22T00:09:20.411Z,1027.44
2019-03-22T00:10:20.403Z,1027.45
2019-03-22T00:11:20.391Z,1027.51
2019-03-22T00:12:20.377Z,1027.49
2019-03-22T00:13:20.399Z,1027.51
2019-03-22T00:14:20.356Z,1027.54
2019-03-22T00:15:20.344Z,1027.49
2019-03-22T00:16:20.335Z,1027.49
2019-03-22T00:17:20.320Z,1027.47
2019-03-22T00:18:20.309Z,1027.46
2019-03-22T00:19:20.321Z,1027.48
2019-03-22T00:20:20.287Z,1027.50
2019-03-22T00:21:20.286Z,1027.51
2019-03-22T00:22:20.274Z,1027.48
2019-03-22T00:23:20.282Z,1027.46
2019-03-22T00:24:20.270Z,1027.51
2019-03-22T00:25:20.237Z,1027.51
2019-03-22T00:26:20.225Z,1027.49
2019-03-22T00:27:20.219Z,1027.45
2019-03-22T00:28:20.223Z,1027.48
2019-03-22T00:29:20.221Z,1027.51
2019-03-22T00:30:20.187Z,1027.47
2019-03-22T00:31:20.243Z,1027.42
2019-03-22T00:32:20.197Z,1027.49
2019-03-22T00:33:20.157Z,1027.51
2019-03-22T00:34:20.173Z,1027.50
2019-03-22T00:35:20.131Z,1027.45
2019-03-22T00:36:20.118Z,1027.48
2019-03-22T00:37:20.114Z,1027.52
2019-03-22T00:38:20.099Z,1027.47
2019-03-22T00:39:20.097Z,1027.46
2019-03-22T00:40:20.095Z,1027.44
2019-03-22T00:41:20.097Z,1027.44
2019-03-22T00:42:20.055Z,1027.49
2019-03-22T00:43:20.042Z,1027.44
2019-03-22T00:44:20.041Z,1027.51
2019-03-22T00:45:20.051Z,1027.49
2019-03-22T00:46:20.015Z,1027.51
2019-03-22T00:47:20.000Z,1027.55
2019-03-22T00:48:19.996Z,1027.50
2019-03-22T00:49:19.985Z,1027.54
2019-03-22T00:50:19.991Z,1027.52
2019-03-22T00:51:19.962Z,1027.45
2019-03-22T00:52:19.975Z,1027.40
2019-03-22T00:53:19.936Z,1027.52
2019-03-22T00:54:19.931Z,1027.42
2019-03-22T00:55:19.946Z,1027.45
2019-03-22T00:56:19.912Z,1027.45
2019-03-22T00:57:28.105Z,1027.43
2019-03-22T00:58:20.884Z,1027.42
2019-03-22T00:59:19.874Z,1027.40
2019-03-22T01:00:19.869Z,1027.41
2019-03-22T01:01:19.876Z,1027.38
2019-03-22T01:02:19.835Z,1027.37
2019-03-22T01:03:19.826Z,1027.41
2019-03-22T01:04:19.820Z,1027.42
2019-03-22T01:05:19.807Z,1027.37
2019-03-22T01:06:19.816Z,1027.41
2019-03-22T01:07:19.797Z,1027.38
2019-03-22T01:08:19.778Z,1027.36
2019-03-22T01:09:19.768Z,1027.34
2019-03-22T01:10:19.753Z,1027.34
2019-03-22T01:11:19.761Z,1027.39
2019-03-22T01:12:19.738Z,1027.35
2019-03-22T01:13:19.757Z,1027.35
2019-03-22T01:14:19.718Z,1027.31
2019-03-22T01:15:19.706Z,1027.30
2019-03-22T01:16:19.719Z,1027.29
2019-03-22T01:17:19.684Z,1027.26
2019-03-22T01:18:19.688Z,1027.26
2019-03-22T01:19:19.667Z,1027.23
2019-03-22T01:20:19.652Z,1027.21
2019-03-22T01:21:19.676Z,1027.20
2019-03-22T01:22:19.637Z,1027.22
2019-03-22T01:23:19.661Z,1027.24
2019-03-22T01:24:19.618Z,1027.21
2019-03-22T01:25:19.606Z,1027.22
2019-03-22T01:26:19.627Z,1027.29
2019-03-22T01:27:19.573Z,1027.27
2019-03-22T01:28:19.574Z,1027.23
2019-03-22T01:29:19.562Z,1027.28
2019-03-22T01:30:19.542Z,1027.28
2019-03-22T01:31:19.532Z,1027.30
2019-03-22T01:32:19.551Z,1027.28
2019-03-22T01:33:19.521Z,1027.27
2019-03-22T01:34:19.515Z,1027.26
2019-03-22T01:35:19.500Z,1027.34
2019-03-22T01:36:19.485Z,1027.32
2019-03-22T01:37:19.490Z,1027.28
2019-03-22T01:38:19.454Z,1027.31
2019-03-22T01:39:19.447Z,1027.29
2019-03-22T01:40:19.436Z,1027.28
2019-03-22T01:41:19.437Z,1027.31
2019-03-22T01:42:21.151Z,1027.24
2019-03-22T01:43:19.410Z,1027.27
2019-03-22T01:44:19.391Z,1027.25
2019-03-22T01:45:19.381Z,1027.29
2019-03-22T01:46:19.371Z,1027.27
2019-03-22T01:47:19.380Z,1027.30
2019-03-22T01:48:19.350Z,1027.25
2019-03-22T01:49:19.352Z,1027.27
2019-03-22T01:50:19.333Z,1027.26
2019-03-22T01:51:19.316Z,1027.23
2019-03-22T01:52:19.652Z,1027.23
2019-03-22T01:53:19.297Z,1027.21
2019-03-22T01:54:19.295Z,1027.23
2019-03-22T01:55:19.277Z,1027.24
2019-03-22T01:56:19.264Z,1027.18
2019-03-22T01:57:19.295Z,1027.20
2019-03-22T01:58:19.249Z,1027.20
2019-03-22T01:59:19.230Z,1027.22
2019-03-22T02:00:19.226Z,1027.25
2019-03-22T02:01:19.211Z,1027.24
2019-03-22T02:02:19.206Z,1027.29
2019-03-22T02:03:19.209Z,1027.29
2019-03-22T02:04:19.180Z,1027.28
2019-03-22T02:05:19.175Z,1027.26
2019-03-22T02:06:19.159Z,1027.19
2019-03-22T02:07:19.152Z,1027.21
2019-03-22T02:08:19.153Z,1027.16
2019-03-22T02:09:19.122Z,1027.21
2019-03-22T02:10:19.120Z,1027.17
2019-03-22T02:11:19.105Z,1027.18
2019-03-22T02:12:19.095Z,1027.20
2019-03-22T02:13:20.874Z,1027.16
2019-03-22T02:14:19.069Z,1027.22
2019-03-22T02:15:19.058Z,1027.18
2019-03-22T02:16:19.051Z,1027.17
2019-03-22T02:17:19.042Z,1027.22
2019-03-22T02:18:19.053Z,1027.20
2019-03-22T02:19:19.022Z,1027.16
2019-03-22T02:20:19.009Z,1027.19
2019-03-22T02:21:18.998Z,1027.21
2019-03-22T02:22:18.993Z,1027.14
2019-03-22T02:23:27.091Z,1027.17
2019-03-22T02:24:18.986Z,1027.14
2019-03-22T02:25:18.960Z,1027.10
2019-03-22T02:26:18.949Z,1027.09
2019-03-22T02:27:18.943Z,1027.07
2019-03-22T02:28:18.930Z,1027.08
2019-03-22T02:29:18.942Z,1027.03
2019-03-22T02:30:18.936Z,1027.06
2019-03-22T02:31:18.895Z,1027.08
2019-03-22T02:32:18.901Z,1027.13
2019-03-22T02:33:18.905Z,1027.02
2019-03-22T02:34:18.862Z,1027.11
2019-03-22T02:35:28.414Z,1027.12
2019-03-22T02:36:19.835Z,1027.11
2019-03-22T02:37:18.828Z,1027.10
2019-03-22T02:38:18.838Z,1027.11
2019-03-22T02:39:18.857Z,1027.07
2019-03-22T02:40:18.800Z,1027.07
2019-03-22T02:41:18.789Z,1027.01
2019-03-22T02:42:18.787Z,1026.96
2019-03-22T02:43:19.694Z,1027.01
2019-03-22T02:44:18.763Z,1026.96
2019-03-22T02:45:18.741Z,1026.93
2019-03-22T02:46:18.730Z,1026.91
2019-03-22T02:47:18.750Z,1026.87
2019-03-22T02:48:18.726Z,1026.92
2019-03-22T02:49:18.702Z,1026.89
2019-03-22T02:50:20.006Z,1026.92
2019-03-22T02:51:18.686Z,1026.90
2019-03-22T02:52:18.670Z,1026.93
2019-03-22T02:53:20.183Z,1026.92
2019-03-22T02:54:18.644Z,1026.90
2019-03-22T02:55:18.652Z,1026.88
2019-03-22T02:56:18.677Z,1026.91
2019-03-22T02:57:18.618Z,1026.90
2019-03-22T02:58:20.908Z,1026.95
2019-03-22T02:59:18.591Z,1026.93
2019-03-22T03:00:18.580Z,1026.95
2019-03-22T03:01:18.575Z,1026.88
2019-03-22T03:02:18.564Z,1026.87
2019-03-22T03:03:18.574Z,1026.91
2019-03-22T03:04:18.542Z,1026.89
2019-03-22T03:05:18.565Z,1026.92
2019-03-22T03:06:18.519Z,1026.88
2019-03-22T03:07:18.525Z,1026.87
2019-03-22T03:08:18.520Z,1026.85
2019-03-22T03:09:18.490Z,1026.86
2019-03-22T03:10:18.504Z,1026.94
2019-03-22T03:11:18.467Z,1026.89
2019-03-22T03:12:18.455Z,1026.89
2019-03-22T03:13:18.449Z,1026.88
2019-03-22T03:14:18.453Z,1026.95
2019-03-22T03:15:18.448Z,1026.94
2019-03-22T03:16:18.428Z,1026.84
2019-03-22T03:17:18.407Z,1026.94
2019-03-22T03:18:18.393Z,1026.88
2019-03-22T03:19:18.406Z,1026.90
2019-03-22T03:20:18.373Z,1026.86
2019-03-22T03:21:18.359Z,1026.90
2019-03-22T03:22:18.352Z,1026.90
2019-03-22T03:23:18.360Z,1026.84
2019-03-22T03:24:18.328Z,1026.91
2019-03-22T03:25:18.318Z,1026.95
2019-03-22T03:26:18.308Z,1026.92
2019-03-22T03:27:18.297Z,1026.93
2019-03-22T03:28:18.317Z,1026.89
2019-03-22T03:29:18.274Z,1026.92
2019-03-22T03:30:18.311Z,1026.88
2019-03-22T03:31:18.261Z,1026.90
2019-03-22T03:32:18.250Z,1026.79
2019-03-22T03:33:18.233Z,1026.80
2019-03-22T03:34:18.249Z,1026.80
2019-03-22T03:35:18.227Z,1026.85
2019-03-22T03:36:18.198Z,1026.85
2019-03-22T03:37:18.187Z,1026.77
2019-03-22T03:38:18.182Z,1026.79
2019-03-22T03:39:18.189Z,1026.87
2019-03-22T03:40:18.175Z,1026.76
2019-03-22T03:41:18.144Z,1026.79
2019-03-22T03:42:18.143Z,1026.79
2019-03-22T03:43:18.159Z,1026.79
2019-03-22T03:44:18.135Z,1026.77
2019-03-22T03:45:18.102Z,1026.81
2019-03-22T03:46:18.091Z,1026.80
2019-03-22T03:47:18.106Z,1026.82
2019-03-22T03:48:18.067Z,1026.87
2019-03-22T03:49:18.104Z,1026.90
2019-03-22T03:50:18.064Z,1026.85
2019-03-22T03:51:18.042Z,1026.89
2019-03-22T03:52:18.031Z,1026.90
2019-03-22T03:53:18.019Z,1026.91
2019-03-22T03:54:18.026Z,1026.87
2019-03-22T03:55:17.993Z,1026.92
2019-03-22T03:56:17.982Z,1026.95
2019-03-22T03:57:17.973Z,1026.92
2019-03-22T03:58:17.960Z,1026.91
2019-03-22T03:59:17.970Z,1026.84
2019-03-22T04:00:17.939Z,1026.88
2019-03-22T04:01:17.930Z,1026.87
2019-03-22T04:02:17.917Z,1026.82
2019-03-22T04:03:17.907Z,1026.87
2019-03-22T04:04:17.915Z,1026.85
2019-03-22T04:05:17.884Z,1026.81
2019-03-22T04:06:17.873Z,1026.82
2019-03-22T04:07:17.869Z,1026.81
2019-03-22T04:08:17.900Z,1026.80
2019-03-22T04:09:17.869Z,1026.80
2019-03-22T04:10:17.835Z,1026.83
2019-03-22T04:11:17.899Z,1026.79
2019-03-22T04:12:17.830Z,1026.76
2019-03-22T04:13:17.808Z,1026.80
2019-03-22T04:14:17.788Z,1026.82
2019-03-22T04:15:17.803Z,1026.83
2019-03-22T04:16:17.764Z,1026.87
2019-03-22T04:17:17.761Z,1026.90
2019-03-22T04:18:17.744Z,1026.89
2019-03-22T04:19:17.744Z,1026.97
2019-03-22T04:20:17.741Z,1026.99
2019-03-22T04:21:17.709Z,1026.94
2019-03-22T04:22:17.700Z,1026.95
2019-03-22T04:23:17.750Z,1026.94
2019-03-22T04:24:17.679Z,1026.88
2019-03-22T04:25:17.692Z,1026.88
2019-03-22T04:26:17.778Z,1026.88
2019-03-22T04:27:17.646Z,1026.85
2019-03-22T04:28:17.638Z,1026.80
2019-03-22T04:29:17.640Z,1026.80
2019-03-22T04:30:17.612Z,1026.85
2019-03-22T04:31:17.626Z,1026.90
2019-03-22T04:32:17.593Z,1026.91
2019-03-22T04:33:17.579Z,1026.86
2019-03-22T04:34:17.570Z,1026.94
2019-03-22T04:35:17.559Z,1026.89
2019-03-22T04:36:17.564Z,1026.94
2019-03-22T04:37:17.535Z,1026.94
2019-03-22T04:38:17.525Z,1026.91
2019-03-22T04:39:17.513Z,1026.96
2019-03-22T04:40:17.516Z,1026.95
2019-03-22T04:41:17.514Z,1026.94
2019-03-22T04:42:17.487Z,1026.94
2019-03-22T04:43:17.470Z,1026.97
2019-03-22T04:44:17.466Z,1026.93
2019-03-22T04:45:17.448Z,1026.94
2019-03-22T04:46:17.457Z,1026.92
2019-03-22T04:47:17.431Z,1026.93
2019-03-22T04:48:17.419Z,1026.97
2019-03-22T04:49:17.426Z,1026.96
2019-03-22T04:50:17.393Z,1026.93
2019-03-22T04:51:17.420Z,1026.94
2019-03-22T04:52:17.370Z,1026.98
2019-03-22T04:53:17.362Z,1026.94
2019-03-22T04:54:17.350Z,1026.95
2019-03-22T04:55:17.340Z,1026.90
2019-03-22T04:56:17.347Z,1026.90
2019-03-22T04:57:17.322Z,1026.87
2019-03-22T04:58:17.310Z,1026.88
2019-03-22T04:59:19.257Z,1026.89
2019-03-22T05:00:17.289Z,1026.88
2019-03-22T05:01:17.314Z,1026.88
2019-03-22T05:02:17.269Z,1026.90
2019-03-22T05:03:17.251Z,1026.90
2019-03-22T05:04:17.243Z,1026.92
2019-03-22T05:05:17.232Z,1026.91
2019-03-22T05:06:17.223Z,1026.89
2019-03-22T05:07:17.229Z,1026.89
2019-03-22T05:08:17.207Z,1026.83
2019-03-22T05:09:17.184Z,1026.89
2019-03-22T05:10:17.224Z,1026.84
2019-03-22T05:11:17.168Z,1026.80
2019-03-22T05:12:17.171Z,1026.81
2019-03-22T05:13:17.185Z,1026.78
2019-03-22T05:14:17.134Z,1026.79
2019-03-22T05:15:17.124Z,1026.78
2019-03-22T05:16:17.117Z,1026.81
2019-03-22T05:17:17.125Z,1026.79
2019-03-22T05:18:17.090Z,1026.75
2019-03-22T05:19:17.083Z,1026.82
2019-03-22T05:20:17.074Z,1026.85
2019-03-22T05:21:17.058Z,1026.86
2019-03-22T05:22:17.065Z,1026.84
2019-03-22T05:23:17.032Z,1026.87
2019-03-22T05:24:18.336Z,1026.81
2019-03-22T05:25:17.013Z,1026.81
2019-03-22T05:26:17.019Z,1026.84
2019-03-22T05:27:17.007Z,1026.83
2019-03-22T05:28:16.981Z,1026.83
2019-03-22T05:29:16.971Z,1026.80
2019-03-22T05:30:16.959Z,1026.84
2019-03-22T05:31:16.947Z,1026.81
2019-03-22T05:32:16.962Z,1026.81
2019-03-22T05:33:16.928Z,1026.84
2019-03-22T05:34:16.919Z,1026.82
2019-03-22T05:35:16.922Z,1026.82
2019-03-22T05:36:16.895Z,1026.86
2019-03-22T05:37:16.899Z,1026.83
2019-03-22T05:38:16.873Z,1026.80
2019-03-22T05:39:16.860Z,1026.79
2019-03-22T05:40:16.846Z,1026.75
2019-03-22T05:41:16.839Z,1026.74
2019-03-22T05:42:16.830Z,1026.77
2019-03-22T05:43:16.841Z,1026.72
2019-03-22T05:44:16.808Z,1026.73
2019-03-22T05:45:16.798Z,1026.67
2019-03-22T05:46:16.792Z,1026.75
2019-03-22T05:47:16.773Z,1026.68
2019-03-22T05:48:16.780Z,1026.71
2019-03-22T05:49:16.758Z,1026.70
2019-03-22T05:50:16.739Z,1026.73
2019-03-22T05:51:16.735Z,1026.78
2019-03-22T05:52:16.719Z,1026.73
2019-03-22T05:53:16.737Z,1026.78
2019-03-22T05:54:16.699Z,1026.77
2019-03-22T05:55:16.691Z,1026.74
2019-03-22T05:56:16.677Z,1026.76
2019-03-22T05:57:16.663Z,1026.80
2019-03-22T05:58:16.674Z,1026.76
2019-03-22T05:59:16.651Z,1026.80
2019-03-22T06:00:16.629Z,1026.81
2019-03-22T06:01:16.617Z,1026.83
2019-03-22T06:02:16.608Z,1026.85
2019-03-22T06:03:16.648Z,1026.88
2019-03-22T06:04:16.589Z,1026.91
2019-03-22T06:05:16.577Z,1026.91
2019-03-22T06:06:16.563Z,1026.95
2019-03-22T06:07:16.552Z,1026.96
2019-03-22T06:08:16.543Z,1026.97
2019-03-22T06:09:16.556Z,1027.02
2019-03-22T06:10:16.546Z,1027.02
2019-03-22T06:11:16.510Z,1027.04
2019-03-22T06:12:16.501Z,1027.07
2019-03-22T06:13:16.538Z,1027.07
2019-03-22T06:14:16.508Z,1027.10
2019-03-22T06:15:16.469Z,1027.10
2019-03-22T06:16:16.459Z,1027.11
2019-03-22T06:17:16.450Z,1027.09
2019-03-22T06:18:16.433Z,1027.09
2019-03-22T06:19:16.460Z,1027.15
2019-03-22T06:20:16.416Z,1027.11
2019-03-22T06:21:16.415Z,1027.12
2019-03-22T06:22:16.420Z,1027.11
2019-03-22T06:23:16.389Z,1027.12
2019-03-22T06:24:16.391Z,1027.10
2019-03-22T06:25:16.364Z,1027.05
2019-03-22T06:26:16.378Z,1027.07
2019-03-22T06:27:16.349Z,1027.10
2019-03-22T06:28:16.333Z,1027.08
2019-03-22T06:29:16.337Z,1027.11
2019-03-22T06:30:16.305Z,1027.06
2019-03-22T06:31:16.304Z,1027.08
2019-03-22T06:32:16.313Z,1027.07
2019-03-22T06:33:16.275Z,1027.10
2019-03-22T06:34:16.308Z,1027.09
2019-03-22T06:35:16.250Z,1027.05
2019-03-22T06:36:16.256Z,1027.01
2019-03-22T06:37:16.235Z,1027.02
2019-03-22T06:38:16.227Z,1027.05
2019-03-22T06:39:16.207Z,1027.06
2019-03-22T06:40:16.233Z,1027.07
2019-03-22T06:41:16.200Z,1027.03
2019-03-22T06:42:16.188Z,1027.05
2019-03-22T06:43:16.173Z,1027.02
2019-03-22T06:44:16.157Z,1027.03
2019-03-22T06:45:16.166Z,1027.06
2019-03-22T06:46:16.165Z,1027.06
2019-03-22T06:47:16.122Z,1027.07
2019-03-22T06:48:16.111Z,1027.12
2019-03-22T06:49:16.113Z,1027.10
2019-03-22T06:50:16.119Z,1027.11
2019-03-22T06:51:16.079Z,1027.13
2019-03-22T06:52:16.067Z,1027.18
2019-03-22T06:53:16.079Z,1027.20
2019-03-22T06:54:16.055Z,1027.14
2019-03-22T06:55:16.082Z,1027.15
2019-03-22T06:56:16.035Z,1027.20
2019-03-22T06:57:16.051Z,1027.20
2019-03-22T06:58:15.999Z,1027.23
2019-03-22T06:59:15.988Z,1027.23
2019-03-22T07:00:15.996Z,1027.24
2019-03-22T07:01:15.969Z,1027.24
2019-03-22T07:02:15.970Z,1027.27
2019-03-22T07:03:15.984Z,1027.23
2019-03-22T07:04:15.938Z,1027.28
2019-03-22T07:05:15.948Z,1027.23
2019-03-22T07:06:15.916Z,1027.27
2019-03-22T07:07:15.906Z,1027.27
2019-03-22T07:08:15.891Z,1027.24
2019-03-22T07:09:15.881Z,1027.27
2019-03-22T07:10:15.870Z,1027.26
2019-03-22T07:11:15.881Z,1027.30
2019-03-22T07:12:15.856Z,1027.28
2019-03-22T07:13:15.846Z,1027.28
2019-03-22T07:14:15.825Z,1027.30
2019-03-22T07:15:15.816Z,1027.31
2019-03-22T07:16:15.837Z,1027.30
2019-03-22T07:17:15.801Z,1027.25
2019-03-22T07:18:15.782Z,1027.28
2019-03-22T07:19:15.801Z,1027.33
2019-03-22T07:20:15.764Z,1027.37
2019-03-22T07:21:15.762Z,1027.34
2019-03-22T07:22:15.735Z,1027.41
2019-03-22T07:23:15.729Z,1027.38
2019-03-22T07:24:15.735Z,1027.34
2019-03-22T07:25:15.720Z,1027.38
2019-03-22T07:26:15.720Z,1027.40
2019-03-22T07:27:15.686Z,1027.44
2019-03-22T07:28:15.674Z,1027.47
2019-03-22T07:29:15.667Z,1027.46
2019-03-22T07:30:18.892Z,1027.51
2019-03-22T07:31:15.653Z,1027.49
2019-03-22T07:32:15.655Z,1027.51
2019-03-22T07:33:15.647Z,1027.53
2019-03-22T07:34:15.630Z,1027.56
2019-03-22T07:35:15.607Z,1027.59
2019-03-22T07:36:15.615Z,1027.58
2019-03-22T07:37:15.601Z,1027.54
2019-03-22T07:38:15.571Z,1027.55
2019-03-22T07:39:15.563Z,1027.57
2019-03-22T07:40:15.571Z,1027.56
2019-03-22T07:41:15.537Z,1027.53
2019-03-22T07:42:17.560Z,1027.58
2019-03-22T07:43:15.516Z,1027.50
2019-03-22T07:44:15.509Z,1027.47
2019-03-22T07:45:15.520Z,1027.44
2019-03-22T07:46:15.491Z,1027.43
2019-03-22T07:47:15.488Z,1027.49
2019-03-22T07:48:15.460Z,1027.43
2019-03-22T07:49:15.450Z,1027.43
2019-03-22T07:50:15.440Z,1027.37
2019-03-22T07:51:15.428Z,1027.46
2019-03-22T07:52:15.440Z,1027.42
2019-03-22T07:53:15.415Z,1027.49
2019-03-22T07:54:15.407Z,1027.41
2019-03-22T07:55:15.384Z,1027.43
2019-03-22T07:56:15.380Z,1027.44
2019-03-22T07:57:15.391Z,1027.42
2019-03-22T07:58:15.355Z,1027.46
2019-03-22T07:59:15.352Z,1027.35
2019-03-22T08:00:15.351Z,1027.37
2019-03-22T08:01:15.324Z,1027.40
2019-03-22T08:02:15.337Z,1027.38
2019-03-22T08:03:15.305Z,1027.42
2019-03-22T08:04:15.299Z,1027.37
2019-03-22T08:05:15.279Z,1027.39
2019-03-22T08:06:15.270Z,1027.41
2019-03-22T08:07:15.259Z,1027.43
2019-03-22T08:08:15.265Z,1027.43
2019-03-22T08:09:15.247Z,1027.46
2019-03-22T08:10:15.281Z,1027.42
2019-03-22T08:11:15.259Z,1027.43
2019-03-22T08:12:15.304Z,1027.41
2019-03-22T08:13:15.201Z,1027.41
2019-03-22T08:14:16.380Z,1027.40
2019-03-22T08:15:15.186Z,1027.41
2019-03-22T08:16:15.163Z,1027.55
2019-03-22T08:17:15.214Z,1027.48
2019-03-22T08:18:15.152Z,1027.50
2019-03-22T08:19:15.236Z,1027.51
2019-03-22T08:20:15.126Z,1027.46
2019-03-22T08:21:15.150Z,1027.45
2019-03-22T08:22:15.122Z,1027.43
2019-03-22T08:23:15.137Z,1027.40
2019-03-22T08:24:15.083Z,1027.39
2019-03-22T08:25:15.095Z,1027.41
2019-03-22T08:26:22.584Z,1027.41
2019-03-22T08:27:15.075Z,1027.40
2019-03-22T08:28:15.064Z,1027.38
2019-03-22T08:29:15.037Z,1027.43
2019-03-22T08:30:15.015Z,1027.42
2019-03-22T08:31:15.004Z,1027.39
2019-03-22T08:32:15.348Z,1027.32
2019-03-22T08:33:15.017Z,1027.36
2019-03-22T08:34:14.990Z,1027.36
2019-03-22T08:35:15.007Z,1027.39
2019-03-22T08:36:15.579Z,1027.36
2019-03-22T08:37:14.973Z,1027.37
2019-03-22T08:38:17.431Z,1027.40
2019-03-22T08:39:14.942Z,1027.35
2019-03-22T08:40:14.922Z,1027.33
2019-03-22T08:41:14.960Z,1027.38
2019-03-22T08:42:14.908Z,1027.37
2019-03-22T08:43:14.896Z,1027.32
2019-03-22T08:44:14.971Z,1027.33
2019-03-22T08:45:14.851Z,1027.35
2019-03-22T08:46:14.868Z,1027.36
2019-03-22T08:47:14.844Z,1027.34
2019-03-22T08:48:14.870Z,1027.41
2019-03-22T08:49:14.956Z,1027.32
2019-03-22T08:50:14.847Z,1027.23
2019-03-22T08:51:14.801Z,1027.24
2019-03-22T08:52:14.819Z,1027.21
2019-03-22T08:53:14.766Z,1027.22
2019-03-22T08:54:14.788Z,1027.20
2019-03-22T08:55:14.744Z,1027.24
2019-03-22T08:56:14.737Z,1027.20
2019-03-22T08:57:14.743Z,1027.19
2019-03-22T08:58:14.715Z,1027.17
2019-03-22T08:59:14.754Z,1027.18
2019-03-22T09:00:14.691Z,1027.19
2019-03-22T09:01:14.681Z,1027.20
2019-03-22T09:02:14.673Z,1027.20
2019-03-22T09:03:14.663Z,1027.20
2019-03-22T09:04:14.813Z,1027.21
2019-03-22T09:05:14.639Z,1027.24
2019-03-22T09:06:14.627Z,1027.23
2019-03-22T09:07:14.644Z,1027.17
2019-03-22T09:08:16.061Z,1027.16
2019-03-22T09:09:14.688Z,1027.16
2019-03-22T09:10:14.597Z,1027.17
2019-03-22T09:11:14.614Z,1027.11
2019-03-22T09:12:14.563Z,1027.14
2019-03-22T09:13:14.558Z,1027.11
2019-03-22T09:14:14.576Z,1027.11
2019-03-22T09:15:14.529Z,1027.15
2019-03-22T09:16:14.533Z,1027.14
2019-03-22T09:17:14.511Z,1027.18
2019-03-22T09:18:15.642Z,1027.13
2019-03-22T09:19:14.488Z,1027.11
2019-03-22T09:20:14.797Z,1027.08
2019-03-22T09:21:14.475Z,1027.09
2019-03-22T09:22:14.478Z,1027.09
2019-03-22T09:23:14.471Z,1027.01
2019-03-22T09:24:14.454Z,1027.04
2019-03-22T09:25:14.438Z,1027.01
2019-03-22T09:26:14.422Z,1027.00
2019-03-22T09:27:14.450Z,1027.03
2019-03-22T09:28:14.425Z,1027.00
2019-03-22T09:29:14.378Z,1026.96
2019-03-22T09:30:14.415Z,1026.91
2019-03-22T09:31:14.380Z,1026.88
2019-03-22T09:32:14.376Z,1026.85
2019-03-22T09:33:14.388Z,1026.82
2019-03-22T09:34:14.324Z,1026.85
2019-03-22T09:35:14.391Z,1026.87
2019-03-22T09:36:14.303Z,1026.86
2019-03-22T09:37:14.295Z,1026.89
2019-03-22T09:38:14.320Z,1026.79
2019-03-22T09:39:14.273Z,1026.80
2019-03-22T09:40:14.278Z,1026.80
2019-03-22T09:41:14.297Z,1026.79
2019-03-22T09:42:14.242Z,1026.78
2019-03-22T09:43:14.246Z,1026.76
2019-03-22T09:44:14.241Z,1026.76
2019-03-22T09:45:14.565Z,1026.74
2019-03-22T09:46:14.241Z,1026.69
2019-03-22T09:47:16.451Z,1026.71
2019-03-22T09:48:14.198Z,1026.69
2019-03-22T09:49:14.169Z,1026.70
2019-03-22T09:50:14.202Z,1026.69
2019-03-22T09:51:14.159Z,1026.68
2019-03-22T09:52:14.129Z,1026.64
2019-03-22T09:53:14.142Z,1026.64
2019-03-22T09:54:14.113Z,1026.59
2019-03-22T09:55:14.625Z,1026.66
2019-03-22T09:56:14.130Z,1026.59
2019-03-22T09:57:14.095Z,1026.60
2019-03-22T09:58:14.065Z,1026.56
2019-03-22T09:59:14.059Z,1026.54
2019-03-22T10:00:14.109Z,1026.58
2019-03-22T10:01:23.585Z,1026.53
2019-03-22T10:02:15.071Z,1026.47
2019-03-22T10:03:14.059Z,1026.52
2019-03-22T10:04:14.053Z,1026.52
2019-03-22T10:05:14.102Z,1026.44
2019-03-22T10:06:14.041Z,1026.46
2019-03-22T10:07:14.003Z,1026.43
2019-03-22T10:08:13.986Z,1026.39
2019-03-22T10:09:13.952Z,1026.40
2019-03-22T10:10:13.995Z,1026.42
2019-03-22T10:11:13.997Z,1026.41
2019-03-22T10:12:13.946Z,1026.40
2019-03-22T10:13:13.933Z,1026.39
2019-03-22T10:14:13.898Z,1026.37
2019-03-22T10:15:13.914Z,1026.36
2019-03-22T10:16:13.911Z,1026.38
2019-03-22T10:17:13.895Z,1026.35
2019-03-22T10:18:13.860Z,1026.33
2019-03-22T10:19:13.896Z,1026.34
2019-03-22T10:20:13.841Z,1026.27
2019-03-22T10:21:22.277Z,1026.31
2019-03-22T10:22:14.825Z,1026.28
2019-03-22T10:23:13.818Z,1026.21
2019-03-22T10:24:13.828Z,1026.25
2019-03-22T10:25:13.848Z,1026.25
2019-03-22T10:26:13.767Z,1026.22
2019-03-22T10:27:13.775Z,1026.18
2019-03-22T10:28:13.749Z,1026.14
2019-03-22T10:29:13.758Z,1026.17
2019-03-22T10:30:13.797Z,1026.12
2019-03-22T10:31:13.711Z,1026.15
2019-03-22T10:32:13.759Z,1026.14
2019-03-22T10:33:22.566Z,1026.13
2019-03-22T10:34:14.691Z,1026.09
2019-03-22T10:35:25.324Z,1026.05
2019-03-22T10:36:14.725Z,1026.05
2019-03-22T10:37:13.645Z,1026.09
2019-03-22T10:38:16.288Z,1026.09
2019-03-22T10:39:13.624Z,1026.14
2019-03-22T10:40:13.737Z,1026.06
2019-03-22T10:41:13.640Z,1026.08
2019-03-22T10:42:13.628Z,1026.08
2019-03-22T10:43:13.631Z,1026.07
2019-03-22T10:44:13.580Z,1026.01
2019-03-22T10:45:13.573Z,1025.98
2019-03-22T10:46:13.626Z,1025.93
2019-03-22T10:47:13.545Z,1025.96
2019-03-22T10:48:13.547Z,1025.94
2019-03-22T10:49:13.527Z,1025.86
2019-03-22T10:50:13.522Z,1025.93
2019-03-22T10:51:13.644Z,1025.86
2019-03-22T10:52:13.503Z,1025.91
2019-03-22T10:53:13.496Z,1025.82
2019-03-22T10:54:13.496Z,1025.79
2019-03-22T10:55:28.954Z,1025.83
2019-03-22T10:56:14.442Z,1025.76
2019-03-22T10:57:13.430Z,1025.74
2019-03-22T10:58:20.868Z,1025.72
2019-03-22T10:59:14.409Z,1025.72
2019-03-22T11:00:13.397Z,1025.70
2019-03-22T11:01:13.410Z,1025.67
2019-03-22T11:02:13.373Z,1025.66
2019-03-22T11:03:13.384Z,1025.67
2019-03-22T11:04:13.369Z,1025.59
2019-03-22T11:05:13.344Z,1025.61
2019-03-22T11:06:13.330Z,1025.57
2019-03-22T11:07:13.319Z,1025.59
2019-03-22T11:08:13.327Z,1025.64
2019-03-22T11:09:13.297Z,1025.54
2019-03-22T11:10:13.703Z,1025.57
2019-03-22T11:11:13.276Z,1025.55
2019-03-22T11:12:13.266Z,1025.58
2019-03-22T11:13:13.280Z,1025.52
2019-03-22T11:14:13.239Z,1025.62
2019-03-22T11:15:13.240Z,1025.54
2019-03-22T11:16:13.238Z,1025.50
2019-03-22T11:17:13.211Z,1025.52
2019-03-22T11:18:13.202Z,1025.51
2019-03-22T11:19:13.204Z,1025.47
2019-03-22T11:20:13.182Z,1025.49
2019-03-22T11:21:13.167Z,1025.47
2019-03-22T11:22:13.158Z,1025.49
2019-03-22T11:23:13.143Z,1025.42
2019-03-22T11:24:13.158Z,1025.39
2019-03-22T11:25:13.121Z,1025.45
2019-03-22T11:26:13.114Z,1025.43
2019-03-22T11:27:13.825Z,1025.36
2019-03-22T11:28:13.089Z,1025.34
2019-03-22T11:29:13.097Z,1025.32
2019-03-22T11:30:13.070Z,1025.31
2019-03-22T11:31:13.056Z,1025.37
2019-03-22T11:32:13.122Z,1025.34
2019-03-22T11:33:13.039Z,1025.32
2019-03-22T11:34:13.043Z,1025.32
2019-03-22T11:35:13.021Z,1025.34
2019-03-22T11:36:13.014Z,1025.37
2019-03-22T11:37:12.996Z,1025.32
2019-03-22T11:38:12.985Z,1025.26
2019-03-22T11:39:15.909Z,1025.29
2019-03-22T11:40:12.959Z,1025.21
2019-03-22T11:41:12.986Z,1025.23
2019-03-22T11:42:12.945Z,1025.23
2019-03-22T11:43:13.015Z,1025.23
2019-03-22T11:44:12.968Z,1025.23
2019-03-22T11:45:12.930Z,1025.20
2019-03-22T11:46:12.899Z,1025.16
2019-03-22T11:47:13.823Z,1025.16
2019-03-22T11:48:12.880Z,1025.14
2019-03-22T11:49:12.882Z,1025.17
2019-03-22T11:50:12.856Z,1025.09
2019-03-22T11:51:12.851Z,1025.08
2019-03-22T11:52:12.839Z,1025.04
2019-03-22T11:53:12.819Z,1025.05
2019-03-22T11:54:12.811Z,1025.07
2019-03-22T11:55:13.336Z,1025.09
2019-03-22T11:56:12.791Z,1025.07
2019-03-22T11:57:12.793Z,1025.00
2019-03-22T11:58:12.764Z,1024.99
2019-03-22T11:59:12.759Z,1024.94
2019-03-22T12:00:12.764Z,1024.95
2019-03-22T12:01:20.308Z,1024.93
2019-03-22T12:02:22.126Z,1024.89
2019-03-22T12:03:13.710Z,1024.88
2019-03-22T12:04:12.701Z,1024.88
2019-03-22T12:05:12.710Z,1024.88